createdAt,value
2022-07-28T00:01:56.779Z,1.30
2022-07-28T00:04:24.665Z,1.60
2022-07-28T00:06:54.002Z,1.33
2022-07-28T00:09:22.068Z,1.30
2022-07-28T00:11:51.987Z,1.43
2022-07-28T00:14:23.088Z,1.40
2022-07-28T00:16:51.117Z,1.30
2022-07-28T00:19:20.160Z,1.23
2022-07-28T00:21:48.075Z,1.60
2022-07-28T00:24:17.526Z,1.47
2022-07-28T00:26:46.838Z,1.23
2022-07-28T00:29:14.898Z,1.50
2022-07-28T00:31:43.016Z,1.67
2022-07-28T00:34:12.150Z,1.60
2022-07-28T00:36:40.565Z,1.20
2022-07-28T00:39:09.181Z,1.40
2022-07-28T00:41:38.354Z,1.50
2022-07-28T00:44:08.091Z,1.50
2022-07-28T00:46:36.642Z,1.50
2022-07-28T00:49:04.694Z,1.50
2022-07-28T00:51:32.896Z,1.50
2022-07-28T00:54:01.030Z,1.40
2022-07-28T00:56:29.174Z,1.20
2022-07-28T00:58:58.440Z,1.50
2022-07-28T01:01:26.419Z,1.50
2022-07-28T01:03:57.791Z,1.50
2022-07-28T01:06:49.710Z,1.60
2022-07-28T01:09:32.227Z,1.43
2022-07-28T01:12:09.099Z,1.43
2022-07-28T01:14:44.215Z,1.50
2022-07-28T01:17:18.254Z,1.50
2022-07-28T01:19:54.192Z,1.37
2022-07-28T01:22:26.603Z,1.37
2022-07-28T01:25:05.237Z,1.60
2022-07-28T01:27:46.667Z,1.50
2022-07-28T01:30:30.985Z,2.43
2022-07-28T01:33:02.338Z,1.63
2022-07-28T01:35:33.870Z,1.60
2022-07-28T01:38:06.390Z,1.50
2022-07-28T01:40:37.258Z,1.60
2022-07-28T01:43:09.365Z,1.50
2022-07-28T01:45:44.703Z,1.50
2022-07-28T01:48:15.296Z,1.43
2022-07-28T01:50:44.424Z,1.90
2022-07-28T01:53:14.690Z,1.50
2022-07-28T01:55:44.837Z,1.70
2022-07-28T01:58:14.869Z,1.60
2022-07-28T02:00:45.098Z,1.70
2022-07-28T02:03:14.000Z,1.70
2022-07-28T02:05:44.355Z,1.50
2022-07-28T02:08:13.882Z,1.70
2022-07-28T02:10:43.703Z,1.60
2022-07-28T02:13:12.942Z,1.50
2022-07-28T02:15:42.482Z,1.73
2022-07-28T02:18:12.479Z,1.70
2022-07-28T02:20:41.615Z,1.60
2022-07-28T02:23:10.883Z,1.60
2022-07-28T02:25:41.212Z,1.63
2022-07-28T02:28:11.573Z,1.80
2022-07-28T02:30:47.830Z,1.70
2022-07-28T02:33:57.979Z,1.57
2022-07-28T02:36:14.872Z,1.80
2022-07-28T02:38:47.427Z,1.83
2022-07-28T02:41:22.392Z,1.90
2022-07-28T02:43:53.565Z,1.60
2022-07-28T02:46:25.343Z,1.60
2022-07-28T02:49:02.222Z,1.70
2022-07-28T02:51:31.443Z,1.57
2022-07-28T02:54:00.599Z,1.87
2022-07-28T02:56:30.164Z,2.00
2022-07-28T02:58:59.576Z,1.63
2022-07-28T03:01:27.793Z,1.67
2022-07-28T03:03:58.805Z,1.67
2022-07-28T03:06:28.746Z,2.00
2022-07-28T03:08:57.549Z,2.00
2022-07-28T03:11:26.891Z,2.00
2022-07-28T03:13:54.935Z,1.73
2022-07-28T03:16:22.997Z,1.80
2022-07-28T03:18:50.942Z,1.90
2022-07-28T03:21:20.252Z,2.10
2022-07-28T03:23:50.719Z,1.70
2022-07-28T03:26:23.456Z,2.00
2022-07-28T03:28:54.010Z,1.73
2022-07-28T03:31:23.050Z,1.60
2022-07-28T03:33:51.012Z,1.87
2022-07-28T03:36:25.482Z,2.20
2022-07-28T03:38:58.727Z,1.80
2022-07-28T03:41:28.989Z,1.93
2022-07-28T03:43:59.150Z,1.90
2022-07-28T03:46:28.121Z,1.87
2022-07-28T03:48:56.492Z,1.97
2022-07-28T03:51:28.316Z,1.80
2022-07-28T03:53:56.326Z,1.80
2022-07-28T03:56:24.216Z,1.90
2022-07-28T03:58:52.185Z,1.80
2022-07-28T04:01:20.319Z,1.87
2022-07-28T04:03:48.302Z,2.10
2022-07-28T04:06:16.582Z,1.83
2022-07-28T04:08:46.488Z,1.53
2022-07-28T04:11:14.638Z,1.90
2022-07-28T04:13:42.838Z,1.90
2022-07-28T04:16:10.768Z,2.10
2022-07-28T04:18:39.563Z,2.00
2022-07-28T04:21:07.759Z,2.00
2022-07-28T04:23:35.712Z,2.10
2022-07-28T04:26:05.224Z,2.10
2022-07-28T04:28:33.089Z,1.70
2022-07-28T04:31:01.172Z,1.83
2022-07-28T04:33:30.444Z,1.97
2022-07-28T04:35:58.467Z,1.80
2022-07-28T04:38:26.351Z,1.90
2022-07-28T04:40:54.327Z,2.30
2022-07-28T04:43:23.535Z,1.97
2022-07-28T04:45:54.077Z,2.13
2022-07-28T04:48:22.922Z,2.20
2022-07-28T04:50:52.437Z,2.40
2022-07-28T04:53:20.503Z,2.20
2022-07-28T04:55:49.414Z,1.87
2022-07-28T04:58:18.385Z,2.00
2022-07-28T05:00:50.366Z,2.10
2022-07-28T05:03:19.359Z,2.10
2022-07-28T05:05:54.045Z,2.23
2022-07-28T05:08:26.117Z,2.10
2022-07-28T05:10:56.149Z,2.13
2022-07-28T05:13:24.331Z,2.20
2022-07-28T05:15:54.008Z,2.10
2022-07-28T05:18:21.898Z,2.47
2022-07-28T05:20:49.813Z,2.00
2022-07-28T05:23:17.778Z,2.50
2022-07-28T05:25:45.887Z,3.03
2022-07-28T05:28:13.988Z,2.40
2022-07-28T05:30:41.896Z,2.30
2022-07-28T05:33:11.131Z,2.37
2022-07-28T05:35:39.022Z,2.20
2022-07-28T05:38:10.825Z,2.37
2022-07-28T05:40:39.117Z,2.47
2022-07-28T05:43:07.106Z,2.17
2022-07-28T05:45:35.105Z,2.40
2022-07-28T05:48:03.083Z,2.33
2022-07-28T05:50:32.594Z,2.30
2022-07-28T05:53:00.548Z,2.37
2022-07-28T05:55:28.635Z,2.27
2022-07-28T05:57:56.534Z,2.77
2022-07-28T06:00:24.673Z,2.17
2022-07-28T06:02:53.433Z,2.40
2022-07-28T06:05:23.079Z,2.23
2022-07-28T06:07:53.047Z,2.17
2022-07-28T06:10:22.779Z,2.30
2022-07-28T06:12:53.355Z,2.60
2022-07-28T06:15:23.363Z,2.10
2022-07-28T06:17:52.581Z,2.20
2022-07-28T06:20:23.616Z,2.40
2022-07-28T06:22:54.847Z,2.10
2022-07-28T06:25:25.591Z,2.50
2022-07-28T06:27:55.220Z,2.00
2022-07-28T06:30:23.987Z,2.07
2022-07-28T06:32:51.931Z,2.00
2022-07-28T06:35:20.609Z,2.37
2022-07-28T06:37:50.352Z,1.90
2022-07-28T06:40:20.816Z,2.23
2022-07-28T06:42:49.485Z,1.90
2022-07-28T06:45:21.053Z,2.20
2022-07-28T06:47:49.744Z,2.13
2022-07-28T06:50:27.027Z,2.27
2022-07-28T06:52:56.033Z,2.10
2022-07-28T06:55:25.300Z,1.90
2022-07-28T06:57:53.211Z,2.27
2022-07-28T07:00:21.224Z,2.30
2022-07-28T07:02:49.136Z,2.30
2022-07-28T07:05:17.102Z,2.00
2022-07-28T07:07:45.395Z,2.10
2022-07-28T07:10:13.572Z,2.10
2022-07-28T07:12:42.828Z,1.90
2022-07-28T07:15:12.071Z,1.87
2022-07-28T07:17:40.122Z,2.10
2022-07-28T07:20:09.296Z,1.93
2022-07-28T07:22:42.984Z,2.20
2022-07-28T07:25:11.608Z,2.17
2022-07-28T07:27:39.529Z,2.47
2022-07-28T07:30:10.365Z,1.93
2022-07-28T07:32:39.032Z,2.10
2022-07-28T07:35:08.361Z,2.10
2022-07-28T07:37:36.436Z,2.37
2022-07-28T07:40:06.352Z,1.90
2022-07-28T07:42:34.644Z,2.07
2022-07-28T07:45:02.527Z,2.03
2022-07-28T07:47:31.996Z,2.10
2022-07-28T07:50:03.946Z,2.20
2022-07-28T07:52:32.614Z,2.20
2022-07-28T07:55:00.523Z,2.07
2022-07-28T07:57:29.746Z,2.40
2022-07-28T07:59:57.749Z,2.03
2022-07-28T08:02:25.631Z,2.20
2022-07-28T08:04:56.727Z,2.10
2022-07-28T08:07:24.847Z,2.27
2022-07-28T08:09:52.751Z,2.10
2022-07-28T08:12:25.234Z,1.90
2022-07-28T08:14:53.833Z,1.93
2022-07-28T08:17:25.591Z,2.00
2022-07-28T08:19:55.731Z,1.87
2022-07-28T08:22:24.010Z,1.70
2022-07-28T08:24:52.323Z,1.83
2022-07-28T08:27:20.195Z,2.00
2022-07-28T08:29:48.158Z,1.67
2022-07-28T08:32:16.126Z,1.63
2022-07-28T08:34:44.034Z,2.20
2022-07-28T08:37:13.436Z,2.20
2022-07-28T08:39:41.339Z,1.83
2022-07-28T08:42:15.844Z,1.60
2022-07-28T08:44:52.834Z,1.77
2022-07-28T08:47:21.319Z,1.70
2022-07-28T08:49:51.001Z,1.90
2022-07-28T08:52:22.039Z,1.70
2022-07-28T08:54:51.684Z,1.67
2022-07-28T08:57:22.794Z,1.83
2022-07-28T08:59:50.949Z,2.00
2022-07-28T09:02:20.111Z,1.67
2022-07-28T09:04:49.150Z,1.80
2022-07-28T09:07:17.567Z,1.80
2022-07-28T09:09:49.637Z,1.60
2022-07-28T09:12:17.775Z,1.67
2022-07-28T09:14:45.945Z,1.50
2022-07-28T09:17:13.947Z,1.70
2022-07-28T09:19:41.896Z,1.60
2022-07-28T09:22:09.871Z,1.63
2022-07-28T09:24:39.530Z,1.50
2022-07-28T09:27:10.822Z,1.90
2022-07-28T09:29:41.284Z,2.10
2022-07-28T09:32:09.649Z,1.80
2022-07-28T09:34:42.493Z,1.50
2022-07-28T09:37:24.806Z,1.43
2022-07-28T09:39:58.090Z,1.80
2022-07-28T09:42:27.589Z,1.60
2022-07-28T09:45:21.660Z,1.63
2022-07-28T09:47:50.850Z,1.80
2022-07-28T09:50:21.831Z,1.43
2022-07-28T09:52:49.743Z,1.40
2022-07-28T09:55:17.657Z,1.47
2022-07-28T09:57:47.334Z,2.00
2022-07-28T10:00:30.921Z,1.50
2022-07-28T10:03:01.763Z,1.70
2022-07-28T10:05:41.058Z,2.00
2022-07-28T10:08:08.937Z,1.33
2022-07-28T10:10:36.813Z,1.63
2022-07-28T10:13:07.202Z,1.47
2022-07-28T10:15:52.752Z,1.50
2022-07-28T10:18:20.756Z,1.73
2022-07-28T10:20:50.718Z,1.60
2022-07-28T10:23:19.793Z,1.43
2022-07-28T10:25:47.895Z,1.50
2022-07-28T10:28:21.628Z,1.30
2022-07-28T10:30:56.343Z,1.57
2022-07-28T10:33:25.939Z,1.87
2022-07-28T10:35:55.367Z,1.40
2022-07-28T10:38:26.986Z,1.70
2022-07-28T10:40:56.482Z,1.40
2022-07-28T10:43:28.958Z,1.60
2022-07-28T10:46:06.853Z,1.50
2022-07-28T10:48:38.334Z,1.47
2022-07-28T10:51:06.956Z,1.57
2022-07-28T10:53:44.056Z,1.70
2022-07-28T10:56:18.955Z,1.60
2022-07-28T10:58:57.533Z,1.60
2022-07-28T11:01:51.318Z,1.50
2022-07-28T11:04:55.242Z,1.70
2022-07-28T11:07:23.338Z,1.43
2022-07-28T11:09:52.113Z,1.50
2022-07-28T11:12:46.120Z,1.80
2022-07-28T11:15:28.983Z,1.57
2022-07-28T11:18:01.876Z,2.03
2022-07-28T11:21:09.705Z,1.60
2022-07-28T11:23:46.672Z,1.40
2022-07-28T11:26:36.090Z,1.70
2022-07-28T11:29:20.001Z,1.53
2022-07-28T11:32:05.250Z,1.40
2022-07-28T11:35:11.045Z,1.40
2022-07-28T11:38:13.904Z,1.63
2022-07-28T11:40:46.460Z,1.73
2022-07-28T11:43:41.641Z,1.40
2022-07-28T11:46:38.471Z,1.67
2022-07-28T11:49:25.804Z,1.50
2022-07-28T11:52:21.603Z,1.40
2022-07-28T11:54:58.016Z,1.50
2022-07-28T11:57:27.927Z,1.53
2022-07-28T12:00:01.619Z,1.47
2022-07-28T12:02:35.373Z,1.57
2022-07-28T12:05:15.592Z,1.60
2022-07-28T12:07:46.371Z,1.70
2022-07-28T12:10:54.599Z,1.53
2022-07-28T12:13:25.778Z,1.50
2022-07-28T12:15:53.743Z,1.53
2022-07-28T12:18:21.672Z,1.30
2022-07-28T12:20:55.480Z,1.40
2022-07-28T12:23:34.994Z,1.30
2022-07-28T12:26:12.228Z,1.33
2022-07-28T12:28:40.266Z,1.50
2022-07-28T12:31:12.556Z,1.20
2022-07-28T12:33:40.598Z,1.70
2022-07-28T12:36:10.560Z,1.37
2022-07-28T12:38:38.653Z,1.40
2022-07-28T12:41:15.132Z,1.60
2022-07-28T12:43:50.717Z,1.27
2022-07-28T12:46:22.381Z,1.40
2022-07-28T12:48:52.009Z,1.60
2022-07-28T12:51:38.698Z,1.50
2022-07-28T12:54:09.184Z,1.30
2022-07-28T12:56:46.243Z,1.57
2022-07-28T12:59:14.601Z,1.23
2022-07-28T13:01:51.092Z,1.70
2022-07-28T13:04:39.494Z,1.50
2022-07-28T13:07:12.904Z,1.50
2022-07-28T13:09:47.045Z,1.40
2022-07-28T13:12:19.300Z,1.40
2022-07-28T13:14:51.851Z,1.53
2022-07-28T13:17:20.435Z,1.33
2022-07-28T13:19:48.725Z,1.40
2022-07-28T13:22:28.602Z,1.40
2022-07-28T13:24:57.790Z,1.53
2022-07-28T13:27:26.115Z,1.40
2022-07-28T13:29:54.445Z,1.50
2022-07-28T13:32:22.557Z,1.47
2022-07-28T13:34:50.620Z,1.40
2022-07-28T13:37:19.582Z,1.47
2022-07-28T13:39:54.139Z,1.40
2022-07-28T13:42:23.788Z,1.60
2022-07-28T13:44:51.934Z,1.20
2022-07-28T13:47:20.124Z,1.33
2022-07-28T13:49:48.207Z,1.23
2022-07-28T13:52:33.223Z,1.30
2022-07-28T13:55:06.038Z,1.60
2022-07-28T13:57:35.941Z,1.40
2022-07-28T14:00:08.048Z,1.30
2022-07-28T14:02:36.853Z,1.60
2022-07-28T14:05:05.661Z,1.47
2022-07-28T14:07:33.572Z,1.50
2022-07-28T14:10:02.119Z,1.47
2022-07-28T14:12:31.372Z,1.50
2022-07-28T14:14:59.760Z,1.50
2022-07-28T14:17:45.665Z,1.33
2022-07-28T14:20:15.314Z,1.50
2022-07-28T14:22:43.707Z,1.50
2022-07-28T14:25:13.488Z,1.70
2022-07-28T14:27:51.113Z,1.57
2022-07-28T14:30:19.860Z,1.40
2022-07-28T14:32:47.903Z,1.47
2022-07-28T14:35:15.966Z,1.40
2022-07-28T14:40:33.620Z,1.60
2022-07-28T14:43:09.206Z,1.60
2022-07-28T14:46:00.487Z,1.40
2022-07-28T14:48:29.425Z,1.27
2022-07-28T14:50:58.523Z,1.63
2022-07-28T14:53:27.668Z,1.70
2022-07-28T14:55:56.236Z,1.50
2022-07-28T14:58:28.811Z,1.40
2022-07-28T15:00:56.751Z,1.50
2022-07-28T15:03:26.810Z,1.63
2022-07-28T15:05:54.744Z,1.30
2022-07-28T15:08:27.998Z,1.60
2022-07-28T15:10:57.601Z,1.70
2022-07-28T15:13:27.072Z,1.30
2022-07-28T15:15:56.900Z,1.20
2022-07-28T15:18:24.823Z,1.40
2022-07-28T15:20:52.729Z,1.50
2022-07-28T15:23:20.684Z,1.47
2022-07-28T15:25:48.637Z,1.37
2022-07-28T15:28:17.761Z,1.63
2022-07-28T15:30:51.862Z,1.40
2022-07-28T15:33:20.785Z,1.60
2022-07-28T15:35:56.614Z,1.40
2022-07-28T15:38:29.208Z,1.40
2022-07-28T15:40:58.607Z,1.50
2022-07-28T15:43:26.704Z,1.47
2022-07-28T15:45:57.271Z,1.40
2022-07-28T15:48:25.551Z,1.40
2022-07-28T15:50:53.451Z,1.40
2022-07-28T15:53:21.460Z,1.37
2022-07-28T15:55:51.560Z,1.50
2022-07-28T15:58:20.576Z,1.53
2022-07-28T16:00:48.455Z,1.23
2022-07-28T16:03:17.823Z,1.50
2022-07-28T16:05:49.356Z,1.80
2022-07-28T16:08:18.216Z,1.60
2022-07-28T16:10:51.239Z,1.30
2022-07-28T16:13:31.415Z,1.70
2022-07-28T16:16:06.248Z,1.30
2022-07-28T16:18:36.384Z,1.30
2022-07-28T16:21:04.867Z,1.43
2022-07-28T16:23:35.453Z,1.50
2022-07-28T16:26:07.757Z,1.50
2022-07-28T16:28:36.051Z,1.37
2022-07-28T16:31:04.027Z,1.43
2022-07-28T16:33:33.556Z,1.60
2022-07-28T16:36:03.446Z,1.30
2022-07-28T16:38:31.400Z,1.40
2022-07-28T16:40:59.288Z,1.53
2022-07-28T16:43:27.172Z,1.47
2022-07-28T16:45:58.228Z,1.57
2022-07-28T16:48:26.312Z,1.43
2022-07-28T16:50:54.740Z,1.50
2022-07-28T16:53:23.958Z,1.50
2022-07-28T16:55:51.806Z,1.70
2022-07-28T16:58:20.002Z,1.47
2022-07-28T17:00:47.922Z,1.37
2022-07-28T17:03:19.415Z,1.40
2022-07-28T17:05:52.643Z,1.57
2022-07-28T17:08:23.700Z,1.50
2022-07-28T17:10:53.258Z,1.40
2022-07-28T17:13:22.407Z,1.50
2022-07-28T17:15:50.324Z,1.40
2022-07-28T17:18:18.694Z,1.40
2022-07-28T17:20:48.776Z,1.40
2022-07-28T17:23:16.742Z,1.40
2022-07-28T17:26:20.468Z,1.13
2022-07-28T17:28:34.621Z,1.70
2022-07-28T17:31:02.658Z,1.30
2022-07-28T17:33:31.407Z,1.50
2022-07-28T17:35:59.717Z,1.53
2022-07-28T17:38:32.839Z,1.30
2022-07-28T17:41:04.457Z,1.47
2022-07-28T17:43:36.025Z,1.40
2022-07-28T17:46:08.443Z,1.40
2022-07-28T17:48:38.993Z,1.30
2022-07-28T17:51:07.278Z,1.50
2022-07-28T17:53:39.226Z,1.40
2022-07-28T17:56:12.193Z,1.10
2022-07-28T17:58:40.239Z,1.40
2022-07-28T18:01:12.220Z,1.50
2022-07-28T18:03:57.907Z,1.50
2022-07-28T18:06:29.715Z,1.67
2022-07-28T18:09:03.740Z,1.70
2022-07-28T18:11:56.939Z,1.40
2022-07-28T18:14:27.569Z,1.30
2022-07-28T18:16:58.424Z,1.40
2022-07-28T18:19:32.497Z,1.27
2022-07-28T18:22:03.272Z,1.33
2022-07-28T18:24:31.875Z,1.47
2022-07-28T18:27:01.088Z,1.53
2022-07-28T18:29:38.517Z,1.40
2022-07-28T18:32:09.602Z,1.20
2022-07-28T18:34:39.056Z,1.50
2022-07-28T18:37:06.979Z,1.40
2022-07-28T18:39:34.831Z,1.20
2022-07-28T18:42:04.238Z,1.57
2022-07-28T18:44:32.149Z,1.23
2022-07-28T18:47:01.297Z,1.23
2022-07-28T18:49:37.813Z,1.40
2022-07-28T18:52:06.591Z,1.57
2022-07-28T18:54:44.102Z,1.63
2022-07-28T18:57:14.328Z,1.57
2022-07-28T18:59:48.878Z,1.50
2022-07-28T19:02:19.907Z,1.53
2022-07-28T19:04:48.620Z,1.60
2022-07-28T19:07:16.945Z,1.40
2022-07-28T19:09:44.896Z,1.40
2022-07-28T19:12:15.095Z,1.43
2022-07-28T19:14:46.217Z,1.53
2022-07-28T19:17:14.135Z,1.63
2022-07-28T19:19:42.011Z,1.93
2022-07-28T19:22:09.988Z,2.10
2022-07-28T19:24:39.864Z,3.33
2022-07-28T19:27:07.839Z,4.40
2022-07-28T19:29:37.185Z,4.00
2022-07-28T19:32:06.480Z,3.23
2022-07-28T19:34:37.967Z,3.87
2022-07-28T19:37:06.519Z,3.03
2022-07-28T19:39:35.439Z,2.80
2022-07-28T19:42:03.786Z,2.00
2022-07-28T19:44:32.254Z,2.23
2022-07-28T19:47:01.650Z,1.87
2022-07-28T19:49:29.625Z,1.90
2022-07-28T19:51:57.578Z,1.60
2022-07-28T19:54:25.479Z,2.50
2022-07-28T19:56:55.966Z,2.00
2022-07-28T19:59:24.100Z,1.90
2022-07-28T20:01:52.072Z,1.57
2022-07-28T20:04:43.152Z,2.17
2022-07-28T20:07:13.795Z,3.53
2022-07-28T20:09:41.664Z,2.83
2022-07-28T20:12:09.650Z,3.50
2022-07-28T20:14:38.679Z,6.60
2022-07-28T20:17:06.670Z,2.47
2022-07-28T20:19:34.700Z,1.83
2022-07-28T20:22:03.899Z,1.60
2022-07-28T20:24:34.200Z,1.77
2022-07-28T20:27:03.671Z,2.10
2022-07-28T20:29:31.519Z,1.90
2022-07-28T20:31:59.515Z,2.50
2022-07-28T20:34:27.734Z,2.57
2022-07-28T20:36:55.604Z,2.13
2022-07-28T20:39:43.881Z,1.80
2022-07-28T20:42:12.545Z,2.03
2022-07-28T20:44:40.416Z,2.10
2022-07-28T20:47:08.344Z,2.40
2022-07-28T20:49:36.248Z,2.23
2022-07-28T20:52:05.556Z,2.90
2022-07-28T20:54:34.840Z,2.40
2022-07-28T20:57:05.406Z,2.10
2022-07-28T20:59:36.147Z,1.97
2022-07-28T21:02:04.111Z,2.93
2022-07-28T21:04:35.377Z,2.70
2022-07-28T21:07:04.198Z,2.30
2022-07-28T21:09:32.266Z,2.07
2022-07-28T21:12:01.513Z,1.70
2022-07-28T21:14:29.492Z,1.87
2022-07-28T21:16:57.480Z,1.83
2022-07-28T21:19:25.614Z,1.93
2022-07-28T21:21:53.538Z,1.50
2022-07-28T21:24:21.378Z,1.50
2022-07-28T21:26:51.631Z,1.70
2022-07-28T21:32:02.295Z,2.10
2022-07-28T21:34:34.729Z,2.23
2022-07-28T21:37:02.859Z,2.10
2022-07-28T21:39:33.840Z,1.50
2022-07-28T21:42:03.722Z,1.83
2022-07-28T21:44:36.285Z,2.00
2022-07-28T21:47:04.247Z,1.80
2022-07-28T21:49:32.603Z,1.77
2022-07-28T21:52:00.826Z,1.90
2022-07-28T21:54:31.852Z,2.10
2022-07-28T21:56:59.812Z,2.23
2022-07-28T21:59:27.707Z,1.80
2022-07-28T22:01:57.163Z,1.93
2022-07-28T22:04:25.698Z,1.80
2022-07-28T22:06:53.839Z,2.10
2022-07-28T22:09:21.986Z,2.00
2022-07-28T22:11:49.864Z,1.90
2022-07-28T22:14:18.274Z,1.87
2022-07-28T22:16:46.472Z,1.97
2022-07-28T22:19:15.792Z,2.20
2022-07-28T22:21:43.663Z,1.97
2022-07-28T22:24:11.501Z,2.00
2022-07-28T22:26:39.403Z,1.90
2022-07-28T22:29:07.284Z,2.10
2022-07-28T22:31:35.186Z,2.17
2022-07-28T22:34:03.137Z,1.90
2022-07-28T22:36:32.491Z,2.00
2022-07-28T22:39:00.336Z,2.10
2022-07-28T22:41:28.669Z,1.60
2022-07-28T22:43:56.539Z,1.73
2022-07-28T22:46:24.539Z,1.90
2022-07-28T22:48:52.565Z,1.93
2022-07-28T22:51:20.526Z,2.00
2022-07-28T22:53:50.091Z,1.90
2022-07-28T22:59:04.162Z,1.80
2022-07-28T23:01:32.325Z,1.90
2022-07-28T23:04:01.921Z,1.67
2022-07-28T23:06:30.456Z,1.87
2022-07-28T23:08:59.769Z,1.87
2022-07-28T23:11:27.693Z,1.80
2022-07-28T23:13:55.646Z,1.80
2022-07-28T23:16:23.855Z,1.83
2022-07-28T23:18:51.858Z,1.70
2022-07-28T23:21:19.791Z,1.40
2022-07-28T23:23:47.917Z,2.00
2022-07-28T23:26:17.458Z,1.70
2022-07-28T23:28:45.434Z,1.70
2022-07-28T23:31:13.491Z,1.50
2022-07-28T23:33:55.376Z,1.70
2022-07-28T23:36:27.418Z,1.70
2022-07-28T23:38:56.980Z,1.87
2022-07-28T23:41:27.970Z,1.80
2022-07-28T23:43:56.064Z,1.50
2022-07-28T23:46:24.628Z,1.67
2022-07-28T23:48:52.975Z,1.33
2022-07-28T23:51:22.588Z,1.70
2022-07-28T23:54:10.543Z,1.60
2022-07-28T23:56:44.284Z,1.80
2022-07-28T23:59:14.454Z,1.90
